Time;durP1;ratioP1;P1;durP2;ratioP2;P2;SDS_P1;SDS_P2;PMS_P1;PMS_P2;Temp;Humidity;BMP_temperature;BMP_pressure;BME280_temperature;BME280_humidity;BME280_pressure;Samples;Min_cycle;Max_cycle;Signal;HPM_P1;HPM_P2
2022/12/14 00:03:42;;;;;;;;;;;-0.90;99.90;;;;;;8376389;28;19930;-69
2022/12/14 00:07:44;;;;;;;;;;;-0.90;99.90;;;;;;8393426;28;19970;-68
2022/12/14 00:11:46;;;;;;;;;;;-0.90;99.90;;;;;;8386420;28;19979;-68
2022/12/14 00:15:48;;;;;;;;;;;-0.90;99.90;;;;;;8388038;28;19928;-69
2022/12/14 00:19:50;;;;;;;;;;;-0.90;99.90;;;;;;8368480;28;19978;-68
2022/12/14 00:23:52;;;;;;;;;;;-0.90;99.90;;;;;;8391845;28;20031;-68
2022/12/14 00:27:54;;;;;;;;;;;-0.80;99.90;;;;;;8387718;28;19928;-68
2022/12/14 00:31:55;;;;;;;;;;;-0.80;99.90;;;;;;8381351;28;19960;-68
2022/12/14 00:35:57;;;;;;;;;;;-0.80;99.90;;;;;;8383899;28;19970;-68
2022/12/14 00:39:59;;;;;;;;;;;-0.90;99.90;;;;;;8371895;28;19924;-68
2022/12/14 00:44:01;;;;;;;;;;;-0.90;99.90;;;;;;8368985;28;19952;-68
2022/12/14 00:48:03;;;;;;;;;;;-0.90;99.90;;;;;;8386544;28;19924;-68
2022/12/14 00:52:04;;;;;;;;;;;-0.80;99.90;;;;;;8391663;28;19924;-68
2022/12/14 00:56:06;;;;;;;;;;;-0.90;99.90;;;;;;8371205;28;20074;-68
2022/12/14 01:00:08;;;;;;;;;;;-0.90;99.90;;;;;;8376434;28;19935;-68
2022/12/14 01:04:16;;;;;;;;;;;-0.90;99.90;;;;;;8405353;28;19978;-68
2022/12/14 01:08:17;;;;;;;;;;;-1.00;99.90;;;;;;8387238;28;19933;-68
2022/12/14 01:12:19;;;;;;;;;;;-1.00;99.90;;;;;;8391448;28;19925;-68
2022/12/14 01:16:21;;;;;;;;;;;-1.00;99.90;;;;;;8393762;28;19937;-68
2022/12/14 01:20:22;;;;;;;;;;;-1.10;99.90;;;;;;8390586;28;19963;-68
2022/12/14 01:24:24;;;;;;;;;;;-1.10;99.90;;;;;;8403323;28;19928;-68
2022/12/14 01:28:26;;;;;;;;;;;-1.20;99.90;;;;;;8366884;28;19975;-68
2022/12/14 01:32:27;;;;;;;;;;;-1.20;99.90;;;;;;8386734;28;19928;-68
2022/12/14 01:36:30;;;;;;;;;;;-1.30;99.90;;;;;;8380464;28;19929;-68
2022/12/14 01:40:31;;;;;;;;;;;-1.30;99.90;;;;;;8380264;28;19929;-69
2022/12/14 01:44:33;;;;;;;;;;;-1.30;99.90;;;;;;8389284;28;19928;-68
2022/12/14 01:48:35;;;;;;;;;;;-1.40;99.90;;;;;;8365374;28;19932;-68
2022/12/14 01:52:44;;;;;;;;;;;-1.40;99.90;;;;;;8374564;28;19928;-68
2022/12/14 01:56:46;;;;;;;;;;;-1.40;99.90;;;;;;8361961;28;19925;-68
2022/12/14 02:00:48;;;;;;;;;;;-1.40;99.90;;;;;;8383587;28;19975;-68
2022/12/14 02:04:54;;;;;;;;;;;-1.50;99.90;;;;;;8392151;28;19928;-68
2022/12/14 02:08:56;;;;;;;;;;;-1.50;99.90;;;;;;8378206;28;19925;-68
2022/12/14 02:13:01;;;;;;;;;;;-1.60;99.90;;;;;;8382402;28;19928;-68
2022/12/14 02:17:05;;;;;;;;;;;-1.60;99.90;;;;;;8365996;28;20368;-68
2022/12/14 02:21:13;;;;;;;;;;;-1.60;99.90;;;;;;8375618;28;19925;-68
2022/12/14 02:25:33;;;;;;;;;;;-1.70;99.90;;;;;;8389966;28;19931;-68
2022/12/14 02:29:44;;;;;;;;;;;-1.70;99.90;;;;;;8384179;28;19967;-68
2022/12/14 02:34:12;;;;;;;;;;;-1.70;99.90;;;;;;8384734;28;19924;-68
2022/12/14 02:38:18;;;;;;;;;;;-1.80;99.90;;;;;;8376008;28;19938;-68
2022/12/14 02:42:24;;;;;;;;;;;-1.90;99.90;;;;;;8377030;28;19960;-68
2022/12/14 02:46:33;;;;;;;;;;;-1.90;99.90;;;;;;8383578;28;19928;-68
2022/12/14 02:50:53;;;;;;;;;;;-2.00;99.90;;;;;;8384880;28;19928;-69
2022/12/14 02:54:59;;;;;;;;;;;-2.00;99.90;;;;;;8371463;28;19924;-68
2022/12/14 02:59:01;;;;;;;;;;;-2.10;99.90;;;;;;8380656;28;20252;-68
2022/12/14 03:03:04;;;;;;;;;;;-2.10;99.90;;;;;;8379683;28;20011;-68
2022/12/14 03:07:24;;;;;;;;;;;-2.10;99.90;;;;;;8385710;28;19924;-69
2022/12/14 03:11:30;;;;;;;;;;;-2.20;99.90;;;;;;8380638;28;19924;-68
2022/12/14 03:15:32;;;;;;;;;;;-2.20;99.90;;;;;;8370722;28;19951;-68
2022/12/14 03:19:36;;;;;;;;;;;-2.20;99.90;;;;;;8378031;28;19924;-68
2022/12/14 03:23:39;;;;;;;;;;;-2.20;99.90;;;;;;8385114;28;21190;-68
2022/12/14 03:27:50;;;;;;;;;;;-2.20;99.90;;;;;;8381253;28;19975;-68
2022/12/14 03:31:56;;;;;;;;;;;-2.20;99.90;;;;;;8388605;28;19939;-68
2022/12/14 03:36:13;;;;;;;;;;;-2.20;99.90;;;;;;8384083;28;20377;-68
2022/12/14 03:40:15;;;;;;;;;;;-2.30;99.90;;;;;;8363678;28;19924;-68
2022/12/14 03:44:23;;;;;;;;;;;-2.30;99.90;;;;;;8384112;28;20349;-68
2022/12/14 03:48:34;;;;;;;;;;;-2.20;99.90;;;;;;8377024;28;19964;-68
2022/12/14 03:52:38;;;;;;;;;;;-2.30;99.90;;;;;;8376003;28;20355;-68
2022/12/14 03:56:54;;;;;;;;;;;-2.30;99.90;;;;;;8382962;28;19966;-68
2022/12/14 04:00:59;;;;;;;;;;;-2.30;99.90;;;;;;8381798;28;19931;-68
2022/12/14 04:05:17;;;;;;;;;;;-2.40;99.90;;;;;;8381639;28;20299;-68
2022/12/14 04:09:29;;;;;;;;;;;-2.40;99.90;;;;;;8376952;28;20365;-68
2022/12/14 04:22:32;;;;;;;;;;;-2.50;99.90;;;;;;8374795;28;19939;-68
2022/12/14 04:26:36;;;;;;;;;;;-2.50;99.90;;;;;;8387113;28;19928;-68
2022/12/14 04:30:38;;;;;;;;;;;-2.60;99.90;;;;;;8394763;28;19924;-68
2022/12/14 04:34:41;;;;;;;;;;;-2.60;99.90;;;;;;8383268;28;19924;-68
2022/12/14 04:38:43;;;;;;;;;;;-2.70;99.90;;;;;;8347916;28;20011;-67
2022/12/14 04:42:49;;;;;;;;;;;-2.70;99.90;;;;;;8377429;28;19931;-68
2022/12/14 04:46:52;;;;;;;;;;;-2.70;99.90;;;;;;8372440;28;19956;-68
2022/12/14 04:51:14;;;;;;;;;;;-2.70;99.90;;;;;;8385467;28;20356;-68
2022/12/14 04:55:23;;;;;;;;;;;-2.70;99.90;;;;;;8369442;28;20238;-68
2022/12/14 04:59:25;;;;;;;;;;;-2.70;99.90;;;;;;8384181;28;20448;-68
2022/12/14 05:03:32;;;;;;;;;;;-2.70;99.90;;;;;;8385927;28;19928;-67
2022/12/14 05:07:49;;;;;;;;;;;-2.70;99.90;;;;;;8376288;28;19928;-68
2022/12/14 05:11:53;;;;;;;;;;;-2.70;99.90;;;;;;8386709;28;19928;-67
2022/12/14 05:15:56;;;;;;;;;;;-2.70;99.90;;;;;;8375297;28;19933;-68
2022/12/14 05:19:58;;;;;;;;;;;-2.70;99.90;;;;;;8381563;28;19931;-68
2022/12/14 05:24:00;;;;;;;;;;;-2.80;99.90;;;;;;8373947;28;20273;-68
2022/12/14 05:28:02;;;;;;;;;;;-2.80;99.90;;;;;;8368331;28;19924;-67
2022/12/14 05:32:04;;;;;;;;;;;-2.80;99.90;;;;;;8362234;28;19928;-68
2022/12/14 05:36:06;;;;;;;;;;;-2.80;99.90;;;;;;8382391;28;19975;-68
2022/12/14 05:40:08;;;;;;;;;;;-2.90;99.90;;;;;;8372201;28;19932;-67
2022/12/14 05:44:10;;;;;;;;;;;-2.90;99.90;;;;;;8383105;28;19929;-68
2022/12/14 05:48:12;;;;;;;;;;;-3.00;99.90;;;;;;8377154;28;19967;-68
2022/12/14 05:52:14;;;;;;;;;;;-3.00;99.90;;;;;;8374035;28;19978;-68
2022/12/14 05:56:15;;;;;;;;;;;-3.10;99.90;;;;;;8383795;28;19971;-67
2022/12/14 06:00:17;;;;;;;;;;;-3.20;99.90;;;;;;8384892;28;19939;-68
2022/12/14 06:04:19;;;;;;;;;;;-3.20;99.90;;;;;;8371878;28;20428;-68
2022/12/14 06:08:20;;;;;;;;;;;-3.20;99.90;;;;;;8383459;28;19928;-68
2022/12/14 06:12:22;;;;;;;;;;;-3.30;99.90;;;;;;8360267;28;19928;-67
2022/12/14 06:16:25;;;;;;;;;;;-3.30;99.90;;;;;;8374413;28;19935;-68
2022/12/14 06:20:27;;;;;;;;;;;-3.40;99.90;;;;;;8380144;28;19930;-68
2022/12/14 06:24:28;;;;;;;;;;;-3.40;99.90;;;;;;8374480;28;19929;-68
2022/12/14 06:28:30;;;;;;;;;;;-3.50;99.90;;;;;;8373489;28;19932;-68
2022/12/14 06:32:31;;;;;;;;;;;-3.50;99.90;;;;;;8381192;28;19924;-67
2022/12/14 06:36:34;;;;;;;;;;;-3.60;99.90;;;;;;8378102;28;20424;-68
2022/12/14 06:40:36;;;;;;;;;;;-3.60;99.90;;;;;;8369455;28;20279;-67
2022/12/14 06:44:37;;;;;;;;;;;-3.70;99.90;;;;;;8374508;28;19931;-68
2022/12/14 06:48:39;;;;;;;;;;;-3.70;99.90;;;;;;8387610;28;19974;-67
2022/12/14 06:52:42;;;;;;;;;;;-3.80;99.90;;;;;;8382515;28;19929;-68
2022/12/14 06:56:44;;;;;;;;;;;-3.80;99.90;;;;;;8386281;28;20290;-68
2022/12/14 07:00:46;;;;;;;;;;;-3.90;99.90;;;;;;8370533;28;19925;-68
2022/12/14 07:04:48;;;;;;;;;;;-3.90;99.90;;;;;;8365598;28;20299;-68
2022/12/14 07:08:52;;;;;;;;;;;-3.90;99.90;;;;;;8379764;28;19932;-67
2022/12/14 07:12:53;;;;;;;;;;;-4.00;99.90;;;;;;8379981;28;20386;-67
2022/12/14 07:16:55;;;;;;;;;;;-4.00;99.90;;;;;;8387290;28;20392;-68
2022/12/14 07:21:10;;;;;;;;;;;-4.10;99.90;;;;;;8387883;28;20003;-67
2022/12/14 07:25:11;;;;;;;;;;;-4.20;99.90;;;;;;8386240;28;19924;-67
2022/12/14 07:29:14;;;;;;;;;;;-4.20;99.90;;;;;;8389722;28;19931;-67
2022/12/14 07:33:15;;;;;;;;;;;-4.20;99.90;;;;;;8381618;28;19924;-68
2022/12/14 07:37:17;;;;;;;;;;;-4.20;99.90;;;;;;8371421;28;19928;-67
2022/12/14 07:41:26;;;;;;;;;;;-4.30;99.90;;;;;;8375427;28;19959;-68
2022/12/14 07:45:29;;;;;;;;;;;-4.30;99.90;;;;;;8391610;28;19970;-68
2022/12/14 07:49:31;;;;;;;;;;;-4.30;99.90;;;;;;8387945;28;19931;-67
2022/12/14 07:53:33;;;;;;;;;;;-4.30;99.90;;;;;;8394507;28;19929;-68
2022/12/14 07:57:34;;;;;;;;;;;-4.30;99.90;;;;;;8392395;28;19924;-68
2022/12/14 08:01:36;;;;;;;;;;;-4.40;99.90;;;;;;8385951;28;19978;-68
2022/12/14 08:05:38;;;;;;;;;;;-4.40;99.90;;;;;;8373303;28;19932;-67
2022/12/14 08:09:40;;;;;;;;;;;-4.30;99.90;;;;;;8368563;28;19925;-68
2022/12/14 08:13:42;;;;;;;;;;;-4.30;99.90;;;;;;8390039;28;19957;-68
2022/12/14 08:17:43;;;;;;;;;;;-4.30;99.90;;;;;;8382450;28;19932;-68
2022/12/14 08:21:45;;;;;;;;;;;-4.30;99.90;;;;;;8374063;28;20308;-67
2022/12/14 08:25:54;;;;;;;;;;;-4.30;99.90;;;;;;8399365;28;19924;-68
2022/12/14 08:29:55;;;;;;;;;;;-4.30;99.90;;;;;;8395322;28;19928;-67
2022/12/14 08:33:58;;;;;;;;;;;-4.30;99.90;;;;;;8392947;28;19925;-67
2022/12/14 08:37:59;;;;;;;;;;;-4.30;99.90;;;;;;8396622;28;19967;-67
2022/12/14 08:42:01;;;;;;;;;;;-4.30;99.90;;;;;;8382274;28;19935;-68
2022/12/14 08:46:03;;;;;;;;;;;-4.30;99.90;;;;;;8389658;28;20012;-67
2022/12/14 08:50:05;;;;;;;;;;;-4.20;99.90;;;;;;8391769;28;19924;-68
2022/12/14 08:54:07;;;;;;;;;;;-4.00;99.90;;;;;;8396820;28;19925;-67
2022/12/14 08:58:09;;;;;;;;;;;-3.90;99.90;;;;;;8383791;28;19928;-68
2022/12/14 09:02:10;;;;;;;;;;;-3.70;99.90;;;;;;8388940;28;19935;-68
2022/12/14 09:06:20;;;;;;;;;;;-3.40;99.90;;;;;;8388279;28;19982;-68
2022/12/14 09:10:21;;;;;;;;;;;-3.00;99.90;;;;;;8385549;28;19928;-67
2022/12/14 09:14:23;;;;;;;;;;;-2.40;99.90;;;;;;8394566;28;19924;-68
2022/12/14 09:18:27;;;;;;;;;;;-1.80;99.90;;;;;;8391229;28;19924;-68
2022/12/14 09:22:30;;;;;;;;;;;-1.30;99.90;;;;;;8397704;28;19925;-68
2022/12/14 09:26:32;;;;;;;;;;;-0.90;99.90;;;;;;8395145;28;19930;-68
2022/12/14 09:30:34;;;;;;;;;;;-0.60;99.90;;;;;;8380242;28;19939;-68
2022/12/14 09:34:35;;;;;;;;;;;-0.50;99.90;;;;;;8398860;28;20341;-68
2022/12/14 09:38:38;;;;;;;;;;;-0.40;99.90;;;;;;8373404;28;20236;-68
2022/12/14 09:42:39;;;;;;;;;;;-0.40;99.90;;;;;;8380704;28;20038;-68
2022/12/14 09:46:47;;;;;;;;;;;-0.40;99.90;;;;;;8397615;28;20261;-68
2022/12/14 09:50:50;;;;;;;;;;;-0.30;99.90;;;;;;8366105;28;19931;-68
2022/12/14 09:54:52;;;;;;;;;;;-0.10;99.90;;;;;;8394746;28;20455;-68
2022/12/14 09:58:56;;;;;;;;;;;0.10;99.90;;;;;;8381642;28;19924;-68
2022/12/14 10:03:01;;;;;;;;;;;0.30;99.90;;;;;;8386183;28;20364;-68
2022/12/14 10:07:29;;;;;;;;;;;0.40;99.90;;;;;;8386420;28;19935;-68
2022/12/14 10:11:41;;;;;;;;;;;0.50;99.90;;;;;;8378304;28;20281;-68
2022/12/14 10:16:01;;;;;;;;;;;0.60;99.90;;;;;;8403236;28;19947;-68
2022/12/14 10:20:15;;;;;;;;;;;0.80;99.90;;;;;;8384116;28;20356;-68
2022/12/14 10:24:31;;;;;;;;;;;1.10;99.90;;;;;;8389526;28;19971;-68
2022/12/14 10:28:36;;;;;;;;;;;1.20;99.90;;;;;;8388079;28;19972;-68
2022/12/14 10:32:38;;;;;;;;;;;1.50;99.90;;;;;;8380323;28;20332;-68
2022/12/14 10:36:50;;;;;;;;;;;1.90;99.90;;;;;;8380093;28;19925;-68
2022/12/14 10:41:10;;;;;;;;;;;2.30;99.90;;;;;;8379472;28;19924;-68
2022/12/14 10:45:21;;;;;;;;;;;2.80;99.90;;;;;;8392863;28;19932;-69
2022/12/14 10:49:52;;;;;;;;;;;3.80;99.90;;;;;;8383110;28;20447;-68
2022/12/14 10:53:59;;;;;;;;;;;4.90;99.90;;;;;;8382350;28;20411;-68
2022/12/14 10:58:01;;;;;;;;;;;5.80;99.90;;;;;;8377594;28;20388;-68
2022/12/14 11:02:05;;;;;;;;;;;6.60;99.90;;;;;;8366586;28;19982;-68
2022/12/14 11:06:15;;;;;;;;;;;7.40;99.90;;;;;;8364831;28;19956;-68
2022/12/14 11:10:17;;;;;;;;;;;8.10;99.90;;;;;;8378701;28;19924;-69
2022/12/14 11:14:21;;;;;;;;;;;8.70;99.90;;;;;;8363261;28;19925;-68
2022/12/14 11:18:27;;;;;;;;;;;9.20;99.90;;;;;;8383862;28;20020;-69
2022/12/14 11:22:41;;;;;;;;;;;9.80;99.90;;;;;;8394370;28;19936;-68
2022/12/14 11:26:43;;;;;;;;;;;10.40;99.90;;;;;;8392418;28;19929;-68
2022/12/14 11:30:55;;;;;;;;;;;11.00;99.90;;;;;;8391367;28;20015;-69
2022/12/14 11:34:57;;;;;;;;;;;11.20;99.90;;;;;;8381214;28;19962;-69
2022/12/14 11:39:00;;;;;;;;;;;11.50;99.90;;;;;;8383243;28;19936;-69
2022/12/14 11:43:03;;;;;;;;;;;11.70;99.90;;;;;;8383383;28;19932;-69
2022/12/14 11:47:07;;;;;;;;;;;12.00;99.90;;;;;;8384374;28;20290;-69
2022/12/14 11:51:10;;;;;;;;;;;12.40;99.90;;;;;;8390702;28;19935;-69
2022/12/14 11:55:13;;;;;;;;;;;12.60;99.90;;;;;;8381528;28;19931;-69
2022/12/14 11:59:16;;;;;;;;;;;12.80;99.90;;;;;;8361304;28;19936;-69
2022/12/14 12:03:23;;;;;;;;;;;12.90;99.90;;;;;;8386905;28;20372;-69
2022/12/14 12:07:27;;;;;;;;;;;13.00;99.90;;;;;;8375416;28;20282;-69
2022/12/14 12:11:31;;;;;;;;;;;13.10;99.90;;;;;;8387823;28;19930;-69
2022/12/14 12:15:36;;;;;;;;;;;13.40;99.90;;;;;;8364991;28;19929;-69
2022/12/14 12:19:39;;;;;;;;;;;13.70;99.90;;;;;;8375174;28;19933;-69
2022/12/14 12:23:54;;;;;;;;;;;14.00;99.90;;;;;;8383976;28;20348;-70
2022/12/14 12:28:00;;;;;;;;;;;14.30;99.90;;;;;;8366642;28;20334;-69
2022/12/14 12:32:04;;;;;;;;;;;14.30;99.90;;;;;;8391446;28;20418;-70
2022/12/14 12:36:07;;;;;;;;;;;14.20;99.90;;;;;;8383741;28;19933;-70
2022/12/14 12:40:15;;;;;;;;;;;14.00;99.90;;;;;;8356683;28;19939;-69
2022/12/14 12:44:22;;;;;;;;;;;13.90;99.90;;;;;;8377706;28;20273;-69
2022/12/14 12:48:38;;;;;;;;;;;13.80;99.90;;;;;;8378636;28;21565;-70
2022/12/14 12:53:06;;;;;;;;;;;14.30;99.90;;;;;;8372109;28;19924;-69
2022/12/14 12:57:10;;;;;;;;;;;14.70;99.90;;;;;;8377192;28;19928;-70
2022/12/14 13:01:12;;;;;;;;;;;14.80;99.90;;;;;;8365858;28;19928;-70
2022/12/14 13:05:15;;;;;;;;;;;15.00;99.90;;;;;;8368807;28;19935;-70
2022/12/14 13:09:39;;;;;;;;;;;15.60;99.90;;;;;;8375882;28;19990;-70
2022/12/14 13:13:49;;;;;;;;;;;15.80;99.90;;;;;;8381195;28;20302;-70
2022/12/14 13:17:54;;;;;;;;;;;16.00;99.90;;;;;;8392779;28;19924;-69
2022/12/14 13:21:56;;;;;;;;;;;15.50;99.90;;;;;;8378351;28;19932;-70
2022/12/14 13:26:13;;;;;;;;;;;14.30;99.90;;;;;;8372806;28;20347;-69
2022/12/14 13:30:48;;;;;;;;;;;12.90;99.90;;;;;;8381733;28;19931;-69
2022/12/14 13:34:56;;;;;;;;;;;11.40;99.90;;;;;;8383573;28;19935;-70
2022/12/14 13:39:13;;;;;;;;;;;10.30;99.90;;;;;;8382831;28;19925;-70
2022/12/14 13:43:17;;;;;;;;;;;9.30;99.90;;;;;;8370977;28;19967;-70
2022/12/14 13:47:20;;;;;;;;;;;8.50;99.90;;;;;;8377467;28;19930;-70
2022/12/14 13:51:27;;;;;;;;;;;7.90;99.90;;;;;;8369046;28;19931;-70
2022/12/14 13:55:34;;;;;;;;;;;7.40;99.90;;;;;;8376439;28;19928;-70
2022/12/14 13:59:38;;;;;;;;;;;7.10;99.90;;;;;;8382377;28;19931;-70
2022/12/14 14:03:41;;;;;;;;;;;6.80;99.90;;;;;;8382498;28;19931;-70
2022/12/14 14:08:04;;;;;;;;;;;6.70;99.90;;;;;;8376059;28;19924;-70
2022/12/14 14:12:25;;;;;;;;;;;6.60;99.90;;;;;;8382389;28;19932;-70
2022/12/14 14:16:33;;;;;;;;;;;6.50;99.90;;;;;;8383239;28;20537;-69
2022/12/14 14:20:39;;;;;;;;;;;6.40;99.90;;;;;;8361451;28;19924;-70
2022/12/14 14:24:56;;;;;;;;;;;6.20;99.90;;;;;;8363825;28;19954;-70
2022/12/14 14:29:16;;;;;;;;;;;6.10;99.90;;;;;;8362923;28;19924;-70
2022/12/14 14:33:31;;;;;;;;;;;6.20;99.90;;;;;;8373621;28;20346;-70
2022/12/14 14:38:12;;;;;;;;;;;6.20;99.90;;;;;;8355465;28;19981;-70
2022/12/14 14:42:18;;;;;;;;;;;6.30;99.90;;;;;;8355774;28;20567;-70
2022/12/14 14:46:30;;;;;;;;;;;6.60;99.90;;;;;;8376509;28;19939;-70
2022/12/14 14:50:35;;;;;;;;;;;7.40;99.90;;;;;;8375665;28;19935;-70
2022/12/14 14:54:36;;;;;;;;;;;8.00;99.90;;;;;;8364105;28;20423;-70
2022/12/14 14:59:13;;;;;;;;;;;8.40;99.90;;;;;;8381176;28;20326;-71
2022/12/14 15:03:15;;;;;;;;;;;8.40;99.90;;;;;;8375607;28;20383;-70
2022/12/14 15:07:22;;;;;;;;;;;8.70;99.90;;;;;;8380586;28;19932;-70
2022/12/14 15:11:25;;;;;;;;;;;9.00;99.90;;;;;;8366657;28;19935;-69
2022/12/14 15:15:36;;;;;;;;;;;8.80;99.90;;;;;;8384352;28;20330;-70
2022/12/14 15:19:38;;;;;;;;;;;8.10;99.90;;;;;;8372842;28;19925;-70
2022/12/14 15:23:50;;;;;;;;;;;7.30;99.90;;;;;;8374429;28;20011;-70
2022/12/14 15:27:53;;;;;;;;;;;6.60;99.90;;;;;;8377333;28;19932;-69
2022/12/14 15:31:57;;;;;;;;;;;5.90;99.90;;;;;;8381694;28;19928;-69
2022/12/14 15:36:04;;;;;;;;;;;5.50;99.90;;;;;;8375970;28;20355;-69
2022/12/14 15:40:09;;;;;;;;;;;5.10;99.90;;;;;;8377340;28;20003;-69
2022/12/14 15:44:19;;;;;;;;;;;4.70;99.90;;;;;;8377441;28;19939;-70
2022/12/14 15:48:21;;;;;;;;;;;4.30;99.90;;;;;;8379303;28;19931;-69
2022/12/14 15:52:27;;;;;;;;;;;4.00;99.90;;;;;;8359732;28;19935;-69
2022/12/14 15:56:33;;;;;;;;;;;3.80;99.90;;;;;;8371333;28;19924;-69
2022/12/14 16:00:39;;;;;;;;;;;3.50;99.90;;;;;;8364052;28;19925;-69
2022/12/14 16:04:41;;;;;;;;;;;3.20;99.90;;;;;;8346869;28;19933;-69
2022/12/14 16:09:03;;;;;;;;;;;2.90;99.90;;;;;;8347641;28;20447;-69
2022/12/14 16:13:07;;;;;;;;;;;2.70;99.90;;;;;;8325951;28;19925;-69
2022/12/14 16:17:15;;;;;;;;;;;2.60;99.90;;;;;;8348753;28;19929;-69
2022/12/14 16:21:28;;;;;;;;;;;2.50;99.90;;;;;;8348196;28;21417;-69
2022/12/14 16:25:32;;;;;;;;;;;2.30;99.90;;;;;;8333397;28;19942;-68
2022/12/14 16:29:33;;;;;;;;;;;2.20;99.90;;;;;;8353943;28;19928;-68
2022/12/14 16:33:36;;;;;;;;;;;2.10;99.90;;;;;;8346516;28;19949;-69
2022/12/14 16:37:37;;;;;;;;;;;2.00;99.90;;;;;;8350950;28;19928;-69
2022/12/14 16:41:50;;;;;;;;;;;2.00;99.90;;;;;;8341341;28;20338;-69
2022/12/14 16:46:01;;;;;;;;;;;1.90;99.90;;;;;;8335979;28;20178;-68
2022/12/14 16:50:18;;;;;;;;;;;1.80;99.90;;;;;;8346885;28;20383;-69
2022/12/14 16:54:40;;;;;;;;;;;1.70;99.90;;;;;;8355970;28;19933;-69
2022/12/14 16:59:00;;;;;;;;;;;1.60;99.90;;;;;;8356690;28;19925;-68
2022/12/14 17:03:07;;;;;;;;;;;1.50;99.90;;;;;;8350529;28;19931;-68
2022/12/14 17:07:13;;;;;;;;;;;1.40;99.90;;;;;;8335427;28;20392;-68
2022/12/14 17:11:15;;;;;;;;;;;1.30;99.90;;;;;;8352331;28;19929;-68
2022/12/14 17:15:18;;;;;;;;;;;1.20;99.90;;;;;;8365514;28;20016;-68
2022/12/14 17:19:25;;;;;;;;;;;1.10;99.90;;;;;;8350724;28;19933;-68
2022/12/14 17:23:27;;;;;;;;;;;1.00;99.90;;;;;;8359936;28;19932;-69
2022/12/14 17:27:29;;;;;;;;;;;0.90;99.90;;;;;;8357092;28;19932;-68
2022/12/14 17:31:31;;;;;;;;;;;0.80;99.90;;;;;;8355137;28;19928;-68
2022/12/14 17:35:32;;;;;;;;;;;0.70;99.90;;;;;;8325121;28;19939;-68
2022/12/14 17:39:37;;;;;;;;;;;0.60;99.90;;;;;;8349135;28;20441;-68
2022/12/14 17:43:39;;;;;;;;;;;0.50;99.90;;;;;;8355818;28;20453;-68
2022/12/14 17:47:46;;;;;;;;;;;0.40;99.90;;;;;;8357720;28;19924;-68
2022/12/14 17:51:48;;;;;;;;;;;0.20;99.90;;;;;;8353001;28;19963;-68
2022/12/14 17:55:49;;;;;;;;;;;0.10;99.90;;;;;;8353528;28;19933;-68
2022/12/14 18:04:12;;;;;;;;;;;-0.10;99.90;;;;;;8351196;28;20300;-68
2022/12/14 18:08:18;;;;;;;;;;;-0.20;99.90;;;;;;8335390;28;20120;-68
2022/12/14 18:12:20;;;;;;;;;;;-0.20;99.90;;;;;;8332714;28;20287;-68
2022/12/14 18:16:24;;;;;;;;;;;-0.30;99.90;;;;;;8355281;28;20074;-68
2022/12/14 18:20:26;;;;;;;;;;;-0.40;99.90;;;;;;8345599;28;19928;-68
2022/12/14 18:24:28;;;;;;;;;;;-0.50;99.90;;;;;;8346809;28;20023;-68
2022/12/14 18:28:29;;;;;;;;;;;-0.70;99.90;;;;;;8333979;28;19932;-68
2022/12/14 18:32:31;;;;;;;;;;;-0.80;99.90;;;;;;8353660;28;20024;-68
2022/12/14 18:36:33;;;;;;;;;;;-0.80;99.90;;;;;;8350695;28;20015;-68
2022/12/14 18:40:35;;;;;;;;;;;-0.80;99.90;;;;;;8351314;28;20813;-68
2022/12/14 18:44:37;;;;;;;;;;;-0.90;99.90;;;;;;8356414;28;19933;-68
2022/12/14 18:48:39;;;;;;;;;;;-1.00;99.90;;;;;;8355894;28;20312;-68
2022/12/14 18:52:41;;;;;;;;;;;-1.10;99.90;;;;;;8356168;28;20004;-68
2022/12/14 18:56:43;;;;;;;;;;;-1.20;99.90;;;;;;8355064;28;19967;-68
2022/12/14 19:00:45;;;;;;;;;;;-1.20;99.90;;;;;;8357079;28;19932;-68
2022/12/14 19:04:48;;;;;;;;;;;-1.20;99.90;;;;;;8371438;28;20027;-68
2022/12/14 19:08:49;;;;;;;;;;;-1.30;99.90;;;;;;8353384;28;19932;-68
2022/12/14 19:12:51;;;;;;;;;;;-1.30;99.90;;;;;;8360188;28;19929;-68
2022/12/14 19:16:53;;;;;;;;;;;-1.40;99.90;;;;;;8351493;28;19995;-68
2022/12/14 19:20:54;;;;;;;;;;;-1.50;99.90;;;;;;8353135;28;19968;-68
2022/12/14 19:24:56;;;;;;;;;;;-1.60;99.90;;;;;;8354557;28;19972;-68
2022/12/14 19:28:58;;;;;;;;;;;-1.70;99.90;;;;;;8354642;28;19931;-68
2022/12/14 19:32:59;;;;;;;;;;;-1.80;99.90;;;;;;8357730;28;19928;-68
2022/12/14 19:47:14;;;;;;;;;;;-1.90;99.90;;;;;;8285182;28;20003;-68
2022/12/14 19:51:17;;;;;;;;;;;-1.90;99.90;;;;;;8275648;28;19933;-68
2022/12/14 19:55:18;;;;;;;;;;;-1.90;99.90;;;;;;8286468;28;19979;-68
2022/12/14 19:59:20;;;;;;;;;;;-2.00;99.90;;;;;;8288035;28;19980;-68
2022/12/14 20:03:22;;;;;;;;;;;-2.10;99.90;;;;;;8285093;28;19967;-68
2022/12/14 20:07:24;;;;;;;;;;;-2.10;99.90;;;;;;8288174;28;19934;-68
2022/12/14 20:11:26;;;;;;;;;;;-2.10;99.90;;;;;;8291419;28;19936;-67
2022/12/14 20:15:27;;;;;;;;;;;-2.10;99.90;;;;;;8295075;28;19925;-68
2022/12/14 20:19:29;;;;;;;;;;;-2.10;99.90;;;;;;8294041;28;19929;-68
2022/12/14 20:23:31;;;;;;;;;;;-2.10;99.90;;;;;;8297694;28;19925;-68
2022/12/14 20:27:34;;;;;;;;;;;-2.20;99.90;;;;;;8294187;28;20288;-68
2022/12/14 20:31:41;;;;;;;;;;;-2.30;99.90;;;;;;8296864;28;20003;-68
2022/12/14 20:35:43;;;;;;;;;;;-2.40;99.90;;;;;;8299233;28;19929;-68
2022/12/14 20:39:44;;;;;;;;;;;-2.50;99.90;;;;;;8286787;28;19930;-68
2022/12/14 20:43:46;;;;;;;;;;;-2.50;99.90;;;;;;8298103;28;19931;-68
2022/12/14 20:47:50;;;;;;;;;;;-2.60;99.90;;;;;;8356009;28;20019;-68
2022/12/14 20:51:52;;;;;;;;;;;-2.60;99.90;;;;;;8352244;28;19950;-68
2022/12/14 20:55:54;;;;;;;;;;;-2.50;99.90;;;;;;8354010;28;20475;-68
2022/12/14 20:59:55;;;;;;;;;;;-2.50;99.90;;;;;;8353221;28;19935;-68
2022/12/14 21:04:00;;;;;;;;;;;-2.50;99.90;;;;;;8357726;28;19955;-68
2022/12/14 21:08:01;;;;;;;;;;;-2.40;99.90;;;;;;8355037;28;19932;-68
2022/12/14 21:12:21;;;;;;;;;;;-2.40;99.90;;;;;;8352626;28;20024;-68
2022/12/14 21:16:23;;;;;;;;;;;-2.30;99.90;;;;;;8355840;28;20304;-68
2022/12/14 21:20:25;;;;;;;;;;;-2.30;99.90;;;;;;8334659;28;19936;-68
2022/12/14 21:24:27;;;;;;;;;;;-2.30;99.90;;;;;;8341913;28;20407;-68
2022/12/14 21:28:48;;;;;;;;;;;-2.20;99.90;;;;;;8343343;28;19978;-67
2022/12/14 21:32:50;;;;;;;;;;;-2.30;99.90;;;;;;8344785;28;19968;-68
2022/12/14 21:36:52;;;;;;;;;;;-2.30;99.90;;;;;;8347270;28;20315;-68
2022/12/14 21:45:57;;;;;;;;;;;-2.40;99.90;;;;;;8331512;28;19982;-68
2022/12/14 21:50:00;;;;;;;;;;;-2.60;99.90;;;;;;8353581;28;20384;-68
2022/12/14 21:54:02;;;;;;;;;;;-2.70;99.90;;;;;;8354733;28;20023;-68
2022/12/14 21:58:16;;;;;;;;;;;-2.70;99.90;;;;;;8351872;28;19935;-68
2022/12/14 22:02:22;;;;;;;;;;;-2.80;99.90;;;;;;8365462;28;19933;-68
2022/12/14 22:06:24;;;;;;;;;;;-2.80;99.90;;;;;;8379351;28;19979;-67
2022/12/14 22:10:28;;;;;;;;;;;-2.90;99.90;;;;;;8380847;28;20027;-68
2022/12/14 22:14:29;;;;;;;;;;;-2.90;99.90;;;;;;8373885;28;19931;-67
2022/12/14 22:18:32;;;;;;;;;;;-3.00;99.90;;;;;;8352890;28;19925;-67
2022/12/14 22:22:34;;;;;;;;;;;-3.10;99.90;;;;;;8379467;28;19932;-67
2022/12/14 22:26:36;;;;;;;;;;;-3.10;99.90;;;;;;8375188;28;19939;-67
2022/12/14 22:30:37;;;;;;;;;;;-3.10;99.90;;;;;;8350203;28;19931;-68
2022/12/14 22:34:39;;;;;;;;;;;-3.20;99.90;;;;;;8364557;28;19935;-68
2022/12/14 22:38:42;;;;;;;;;;;-3.20;99.90;;;;;;8345746;28;19929;-67
2022/12/14 22:42:43;;;;;;;;;;;-3.20;99.90;;;;;;8363802;28;19932;-67
2022/12/14 22:46:45;;;;;;;;;;;-3.30;99.90;;;;;;8370102;28;20281;-67
2022/12/14 22:50:47;;;;;;;;;;;-3.30;99.90;;;;;;8363167;28;19924;-67
2022/12/14 22:54:48;;;;;;;;;;;-3.30;99.90;;;;;;8362464;28;20051;-68
2022/12/14 22:58:52;;;;;;;;;;;-3.40;99.90;;;;;;8393350;28;19933;-68
2022/12/14 23:02:54;;;;;;;;;;;-3.40;99.90;;;;;;8370321;28;19935;-67
2022/12/14 23:06:56;;;;;;;;;;;-3.40;99.90;;;;;;8362146;28;19987;-68
